This is the latest recevied weather packets stored in our database for station/object OK1CBR-13. If no packets are shown the sender has not sent any weather packets the latest 10 day(s).
| Time | Temp. | Humidity | Pressure | Rain* | Wind** | Luminosity | Snow |
|---|---|---|---|---|---|---|---|
| 1777951652 | 14.44° C | 69% | 1009.2 hPa | - | - | - | - |
| 1777951052 | 14.44° C | 74% | 1009.3 hPa | - | - | - | - |
| 1777950452 | 15° C | 78% | 1009.5 hPa | - | - | - | - |
| 1777949852 | 15° C | 80% | 1009.5 hPa | - | - | - | - |
| 1777949252 | 15.56° C | 68% | 1010.6 hPa | - | - | - | - |
| 1777948652 | 15.56° C | 65% | 1010.7 hPa | - | - | - | - |
| 1777948053 | 15.56° C | 64% | 1010.3 hPa | - | - | - | - |
| 1777947452 | 15.56° C | 67% | 1010.3 hPa | - | - | - | - |
| 1777946852 | 15.56° C | 69% | 1010.3 hPa | - | - | - | - |
| 1777946253 | 15.56° C | 70% | 1010.3 hPa | - | - | - | - |
| 1777945652 | 15.56° C | 71% | 1010.3 hPa | - | - | - | - |
| 1777945053 | 15.56° C | 72% | 1010.3 hPa | - | - | - | - |
| 1777944453 | 15.56° C | 73% | 1010.5 hPa | - | - | - | - |
| 1777943852 | 15.56° C | 72% | 1010.9 hPa | - | - | - | - |
| 1777943253 | 15.56° C | 71% | 1011.2 hPa | - | - | - | - |
| 1777942653 | 15.56° C | 72% | 1011.4 hPa | - | - | - | - |
| 1777942053 | 15.56° C | 73% | 1011.4 hPa | - | - | - | - |
| 1777941453 | 15.56° C | 70% | 1011.5 hPa | - | - | - | - |
| 1777940853 | 16.11° C | 69% | 1011.8 hPa | - | - | - | - |
| 1777940253 | 15.56° C | 70% | 1011.9 hPa | - | - | - | - |
| 1777939653 | 15.56° C | 72% | 1011.9 hPa | - | - | - | - |
| 1777939053 | 16.11° C | 67% | 1012.1 hPa | - | - | - | - |
| 1777938453 | 16.11° C | 67% | 1012.3 hPa | - | - | - | - |
| 1777937853 | 15.56° C | 67% | 1012.3 hPa | - | - | - | - |
| 1777937253 | 16.11° C | 68% | 1012 hPa | - | - | - | - |
* Rain since midnight (hover to see other rain measurements)
** Current wind speed in m/s (hover to see current wind gust speed)